Time;durP1;ratioP1;P1;durP2;ratioP2;P2;SDS_P1;SDS_P2;PMS_P1;PMS_P2;Temp;Humidity;BMP_temperature;BMP_pressure;BME280_temperature;BME280_humidity;BME280_pressure;Samples;Min_cycle;Max_cycle;Signal;HPM_P1;HPM_P2
2021/06/02 00:00:01;;;;;;;2.05;1.25;;;;;;;17.72;43.44;101285.97;686332;28;157254;-66
2021/06/02 00:00:47;;;;;;;4.22;1.40;;;;;;;17.69;43.53;101286.38;683645;28;137833;-66
2021/06/02 00:01:37;;;;;;;1.73;1.20;;;;;;;17.67;43.73;101289.31;684544;28;141210;-66
2021/06/02 00:02:00;;;;;;;1.50;1.20;;;;;;;17.68;43.65;101290.16;684504;28;138239;-66
2021/06/02 00:02:21;;;;;;;1.20;1.20;;;;;;;17.67;43.82;101288.50;687268;28;46629;-66
2021/06/02 00:02:46;;;;;;;1.50;1.40;;;;;;;17.67;43.84;101291.22;691816;28;16877;-66
2021/06/02 00:03:09;;;;;;;1.20;1.10;;;;;;;17.66;43.65;101290.34;689673;28;138828;-66
2021/06/02 00:03:31;;;;;;;1.75;1.25;;;;;;;17.65;43.87;101292.25;694029;28;26916;-66
2021/06/02 00:03:53;;;;;;;2.60;1.20;;;;;;;17.64;43.66;101282.38;692104;28;70313;-66
2021/06/02 00:04:15;;;;;;;2.28;1.42;;;;;;;17.65;44.05;101288.69;690421;28;22407;-66
2021/06/02 00:04:42;;;;;;;2.13;1.30;;;;;;;17.64;44.21;101292.47;689536;28;65286;-66
2021/06/02 00:05:04;;;;;;;1.30;1.30;;;;;;;17.66;44.25;101290.34;684481;28;138192;-66
2021/06/02 00:05:27;;;;;;;1.50;1.40;;;;;;;17.65;44.13;101292.25;686699;28;69292;-66
2021/06/02 00:05:52;;;;;;;2.22;1.33;;;;;;;17.66;44.04;101293.09;686983;28;44373;-66
2021/06/02 00:06:13;;;;;;;1.10;1.10;;;;;;;17.64;44.12;101296.03;687265;28;116474;-66
2021/06/02 00:06:35;;;;;;;1.45;1.35;;;;;;;17.64;43.87;101296.03;691072;28;22403;-66
2021/06/02 00:06:58;;;;;;;1.42;1.33;;;;;;;17.63;43.97;101291.63;691135;28;44413;-66
2021/06/02 00:07:21;;;;;;;1.20;1.20;;;;;;;17.64;43.94;101292.47;692102;28;65500;-67
2021/06/02 00:07:43;;;;;;;1.40;1.30;;;;;;;17.62;43.89;101289.94;692295;28;69837;-66
2021/06/02 00:08:08;;;;;;;1.70;1.30;;;;;;;17.60;43.91;101300.25;690215;28;45423;-66
2021/06/02 00:08:29;;;;;;;1.40;1.30;;;;;;;17.59;44.11;101293.09;688201;28;115922;-66
2021/06/02 00:08:52;;;;;;;1.50;1.40;;;;;;;17.59;43.99;101293.09;690856;28;23481;-66
2021/06/02 00:09:14;;;;;;;1.48;1.38;;;;;;;17.56;43.96;101298.97;689273;28;49451;-66
2021/06/02 00:09:36;;;;;;;1.55;1.30;;;;;;;17.56;44.22;101296.25;689126;28;41719;-66
2021/06/02 00:09:58;;;;;;;1.42;1.33;;;;;;;17.55;44.05;101305.47;693243;28;46435;-66
2021/06/02 00:10:20;;;;;;;1.50;1.40;;;;;;;17.53;44.15;101293.94;695869;28;45907;-66
2021/06/02 00:10:41;;;;;;;1.50;1.40;;;;;;;17.50;44.29;101297.09;695856;28;44383;-66
2021/06/02 00:11:05;;;;;;;1.55;1.38;;;;;;;17.48;44.16;101299.19;693543;28;23463;-66
2021/06/02 00:11:26;;;;;;;1.40;1.30;;;;;;;17.50;44.15;101294.34;691023;28;90405;-66
2021/06/02 00:11:48;;;;;;;1.58;1.40;;;;;;;17.49;44.35;101295.41;693122;28;46322;-66
2021/06/02 00:12:11;;;;;;;1.55;1.40;;;;;;;17.50;44.51;101297.09;694594;28;1147;-66
2021/06/02 00:12:32;;;;;;;1.50;1.40;;;;;;;17.48;44.40;101304.66;692048;28;70483;-66
2021/06/02 00:12:54;;;;;;;1.63;1.40;;;;;;;17.46;44.32;101307.59;692472;28;46349;-66
2021/06/02 00:13:17;;;;;;;1.70;1.23;;;;;;;17.46;44.33;101301.28;693921;28;21545;-66
2021/06/02 00:13:39;;;;;;;1.30;1.30;;;;;;;17.45;44.09;101305.06;691477;28;93452;-66
2021/06/02 00:14:01;;;;;;;1.17;1.15;;;;;;;17.43;44.36;101301.72;694270;28;22513;-66
2021/06/02 00:14:23;;;;;;;1.50;1.40;;;;;;;17.42;44.32;101297.31;694320;28;22663;-66
2021/06/02 00:14:45;;;;;;;3.30;1.50;;;;;;;17.41;44.57;101298.34;692316;28;69529;-66
2021/06/02 00:15:08;;;;;;;1.80;1.25;;;;;;;17.39;44.24;101303.19;693590;28;41946;-66
2021/06/02 00:15:29;;;;;;;1.35;1.25;;;;;;;17.37;44.63;101303.38;693308;28;43377;-66
2021/06/02 00:15:50;;;;;;;1.70;1.50;;;;;;;17.38;44.73;101304.22;693208;28;39996;-66
2021/06/02 00:16:11;;;;;;;3.17;1.50;;;;;;;17.37;44.80;101305.28;693715;28;22485;-66
2021/06/02 00:16:32;;;;;;;2.40;1.30;;;;;;;17.35;44.54;101297.31;693937;28;15792;-66
2021/06/02 00:16:55;;;;;;;1.90;1.45;;;;;;;17.35;44.71;101305.50;694042;28;22402;-66
2021/06/02 00:17:17;;;;;;;1.60;1.50;;;;;;;17.36;44.84;101300.88;693097;28;61293;-66
2021/06/02 00:17:38;;;;;;;1.30;1.20;;;;;;;17.36;44.51;101301.69;693849;28;16179;-66
2021/06/02 00:18:00;;;;;;;1.05;1.05;;;;;;;17.35;44.66;101304.63;693035;28;45362;-66
2021/06/02 00:18:21;;;;;;;1.30;1.20;;;;;;;17.35;44.68;101301.91;694489;28;10385;-66
2021/06/02 00:18:42;;;;;;;1.35;1.25;;;;;;;17.36;45.11;101301.69;694019;28;22417;-66
2021/06/02 00:19:05;;;;;;;1.42;1.20;;;;;;;17.35;44.77;101307.38;693391;28;35913;-66
2021/06/02 00:19:26;;;;;;;1.52;1.27;;;;;;;17.33;44.94;101304.84;692159;28;45393;-66
2021/06/02 00:19:48;;;;;;;1.60;1.50;;;;;;;17.33;44.74;101304.84;693071;28;22098;-66
2021/06/02 00:20:11;;;;;;;1.98;1.40;;;;;;;17.31;44.90;101306.13;693934;28;17252;-66
2021/06/02 00:20:32;;;;;;;1.98;1.30;;;;;;;17.32;45.06;101305.06;692791;28;69451;-66
2021/06/02 00:20:54;;;;;;;1.20;1.10;;;;;;;17.32;44.93;101310.50;696805;28;24328;-66
2021/06/02 00:21:15;;;;;;;1.42;1.33;;;;;;;17.32;45.23;101310.50;695679;28;45310;-63
2021/06/02 00:21:37;;;;;;;2.00;1.20;;;;;;;17.31;45.17;101301.50;696240;28;46350;-64
2021/06/02 00:21:59;;;;;;;2.10;1.30;;;;;;;17.31;45.06;101304.22;696876;28;19402;-64
2021/06/02 00:22:20;;;;;;;2.35;1.38;;;;;;;17.29;44.95;101306.31;696610;28;22754;-64
2021/06/02 00:22:42;;;;;;;1.58;1.38;;;;;;;17.29;45.40;101315.34;696596;28;22387;-64
2021/06/02 00:23:03;;;;;;;1.30;1.20;;;;;;;17.29;44.96;101303.59;695386;28;44410;-64
2021/06/02 00:23:25;;;;;;;1.30;1.20;;;;;;;17.28;45.31;101310.94;696708;28;23421;-64
2021/06/02 00:23:46;;;;;;;1.15;1.15;;;;;;;17.26;44.93;101307.56;696152;28;43636;-64
2021/06/02 00:24:08;;;;;;;1.30;1.20;;;;;;;17.29;45.17;101311.78;696896;28;22432;-64
2021/06/02 00:24:29;;;;;;;2.03;1.30;;;;;;;17.27;45.28;101306.53;695774;28;44287;-64
2021/06/02 00:24:51;;;;;;;1.40;1.30;;;;;;;17.29;45.30;101303.59;696452;28;21466;-64
2021/06/02 00:25:13;;;;;;;1.40;1.30;;;;;;;17.30;45.07;101305.25;696704;28;23569;-64
2021/06/02 00:25:34;;;;;;;1.38;1.27;;;;;;;17.31;45.22;101304.22;695261;28;68363;-64
2021/06/02 00:25:55;;;;;;;1.40;1.30;;;;;;;17.30;45.48;101302.53;695922;28;46311;-64
2021/06/02 00:26:18;;;;;;;2.58;1.30;;;;;;;17.32;45.10;101302.31;692889;28;40970;-64
2021/06/02 00:26:40;;;;;;;1.38;1.27;;;;;;;17.31;45.37;101298.75;692259;28;69467;-64
2021/06/02 00:27:05;;;;;;;1.48;1.38;;;;;;;17.32;45.08;101305.91;693437;28;35145;-64
2021/06/02 00:27:30;;;;;;;1.67;1.55;;;;;;;17.32;45.12;101296.84;688405;28;106201;-64
2021/06/02 00:27:54;;;;;;;1.75;1.40;;;;;;;17.31;45.32;101303.38;688420;28;92321;-64
2021/06/02 00:28:16;;;;;;;2.00;1.40;;;;;;;17.29;45.12;101298.97;689512;28;114974;-64
2021/06/02 00:28:38;;;;;;;1.50;1.35;;;;;;;17.29;45.26;101307.16;694100;28;21540;-64
2021/06/02 00:29:00;;;;;;;1.40;1.30;;;;;;;17.28;45.16;101305.47;693156;28;41839;-64
2021/06/02 00:29:25;;;;;;;1.77;1.45;;;;;;;17.28;45.62;101304.63;693805;28;46390;-66
2021/06/02 00:29:46;;;;;;;1.38;1.27;;;;;;;17.27;45.36;101305.66;692916;28;115904;-66
2021/06/02 00:30:08;;;;;;;1.60;1.50;;;;;;;17.25;45.30;101305.88;695971;28;23543;-64
2021/06/02 00:30:30;;;;;;;1.58;1.42;;;;;;;17.24;45.53;101312.41;694901;28;70488;-64
2021/06/02 00:30:51;;;;;;;2.50;1.40;;;;;;;17.25;45.43;101302.31;696642;28;23536;-64
2021/06/02 00:31:15;;;;;;;1.90;1.30;;;;;;;17.24;45.49;101309.69;697561;28;1027;-64
2021/06/02 00:31:38;;;;;;;1.10;1.00;;;;;;;17.25;45.40;101299.59;697541;28;1207;-64
2021/06/02 00:32:00;;;;;;;1.35;1.25;;;;;;;17.25;45.50;101299.59;695392;28;48097;-64
2021/06/02 00:32:21;;;;;;;1.60;1.50;;;;;;;17.26;45.80;101309.47;697296;28;1813;-66
2021/06/02 00:32:43;;;;;;;1.23;1.20;;;;;;;17.26;45.91;101304.00;696187;28;46643;-64
2021/06/02 00:33:06;;;;;;;1.52;1.42;;;;;;;17.25;45.79;101308.59;696898;28;15188;-64
2021/06/02 00:33:27;;;;;;;1.73;1.50;;;;;;;17.24;45.66;101306.94;695282;28;62602;-64
2021/06/02 00:33:49;;;;;;;2.67;1.33;;;;;;;17.24;45.47;101308.81;693702;28;23436;-64
2021/06/02 00:34:10;;;;;;;2.20;1.10;;;;;;;17.26;45.84;101309.47;693985;28;23455;-64
2021/06/02 00:34:33;;;;;;;1.52;1.20;;;;;;;17.26;45.67;101314.94;693921;28;24390;-64
2021/06/02 00:34:54;;;;;;;1.48;1.38;;;;;;;17.26;45.61;101304.84;692179;28;68347;-64
2021/06/02 00:35:17;;;;;;;1.40;1.40;;;;;;;17.25;45.63;101311.34;693583;28;23238;-64
2021/06/02 00:35:38;;;;;;;2.03;1.30;;;;;;;17.26;46.10;101310.31;693526;28;70657;-64
2021/06/02 00:36:02;;;;;;;2.05;1.20;;;;;;;17.25;45.97;101308.59;697111;28;863;-64
2021/06/02 00:36:25;;;;;;;1.23;1.20;;;;;;;17.25;45.86;101302.31;694181;28;92328;-64
2021/06/02 00:36:47;;;;;;;1.30;1.20;;;;;;;17.26;45.83;101314.94;695311;28;69563;-63
2021/06/02 00:37:09;;;;;;;1.40;1.30;;;;;;;17.25;45.95;101307.78;695179;28;45761;-64
2021/06/02 00:37:30;;;;;;;1.55;1.40;;;;;;;17.24;45.86;101311.53;695467;28;43584;-64
2021/06/02 00:37:52;;;;;;;1.67;1.33;;;;;;;17.22;46.33;101303.56;696980;28;14553;-64
2021/06/02 00:38:13;;;;;;;2.33;1.25;;;;;;;17.20;46.33;101307.56;696060;28;41225;-64
2021/06/02 00:38:34;;;;;;;1.50;1.40;;;;;;;17.21;46.02;101311.97;696948;28;23474;-64
2021/06/02 00:38:56;;;;;;;1.40;1.30;;;;;;;17.20;46.16;101305.66;696540;28;20881;-64
2021/06/02 00:39:17;;;;;;;1.73;1.30;;;;;;;17.20;46.09;101311.13;695441;28;45198;-64
2021/06/02 00:39:40;;;;;;;1.73;1.23;;;;;;;17.18;46.33;101305.03;697147;28;957;-64
2021/06/02 00:40:04;;;;;;;1.40;1.30;;;;;;;17.18;46.82;101309.66;693315;28;68496;-64
2021/06/02 00:40:33;;;;;;;1.30;1.25;;;;;;;17.16;46.37;101312.56;693766;28;75044;-64
2021/06/02 00:41:02;;;;;;;1.48;1.27;;;;;;;17.15;46.73;101310.06;695179;28;61467;-65
2021/06/02 00:41:25;;;;;;;1.25;1.15;;;;;;;17.14;47.01;101308.41;697845;28;917;-64
2021/06/02 00:41:47;;;;;;;1.55;1.45;;;;;;;17.12;46.75;101303.13;695104;28;66593;-64
2021/06/02 00:42:08;;;;;;;1.35;1.30;;;;;;;17.11;46.79;101302.31;694929;28;47836;-64
2021/06/02 00:42:32;;;;;;;1.50;1.40;;;;;;;17.11;47.16;101306.91;696662;28;21570;-64
2021/06/02 00:42:53;;;;;;;1.50;1.40;;;;;;;17.10;46.93;101307.97;695144;28;69545;-64
2021/06/02 00:43:15;;;;;;;1.90;1.30;;;;;;;17.11;47.33;101306.91;695559;28;41163;-64
2021/06/02 00:43:36;;;;;;;3.72;1.45;;;;;;;17.10;47.22;101310.69;695770;28;32401;-64
2021/06/02 00:43:57;;;;;;;1.95;1.40;;;;;;;17.08;47.54;101308.19;696716;28;23516;-63
2021/06/02 00:44:20;;;;;;;1.30;1.20;;;;;;;17.09;47.15;101298.09;696704;28;16916;-64
2021/06/02 00:44:41;;;;;;;2.13;1.30;;;;;;;17.09;47.34;101309.84;692713;28;44404;-64
2021/06/02 00:45:04;;;;;;;2.28;1.27;;;;;;;17.09;47.25;101307.13;693880;28;22401;-64
2021/06/02 00:45:26;;;;;;;2.10;1.33;;;;;;;17.09;47.07;101304.38;692077;28;59082;-64
2021/06/02 00:45:47;;;;;;;1.50;1.40;;;;;;;17.09;47.33;101304.38;693575;28;44062;-64
2021/06/02 00:46:09;;;;;;;1.40;1.30;;;;;;;17.09;47.57;101306.28;693580;28;24801;-64
2021/06/02 00:46:34;;;;;;;1.33;1.20;;;;;;;17.09;47.42;101303.56;693183;28;67297;-64
2021/06/02 00:46:57;;;;;;;1.42;1.33;;;;;;;17.08;47.47;101312.78;694678;28;80558;-64
2021/06/02 00:47:18;;;;;;;1.60;1.48;;;;;;;17.08;47.63;101305.44;695837;28;44907;-64
2021/06/02 00:47:40;;;;;;;1.50;1.33;;;;;;;17.07;47.58;101302.94;696397;28;35712;-64
2021/06/02 00:48:04;;;;;;;1.40;1.30;;;;;;;17.08;47.80;101307.31;696797;28;23666;-64
2021/06/02 00:48:25;;;;;;;1.42;1.40;;;;;;;17.07;47.52;101311.94;694461;28;83699;-64
2021/06/02 00:48:46;;;;;;;1.90;1.40;;;;;;;17.07;47.98;101305.66;693394;28;19015;-64
2021/06/02 00:49:09;;;;;;;2.30;1.30;;;;;;;17.07;47.48;101314.69;693970;28;22406;-64
2021/06/02 00:49:30;;;;;;;1.17;1.13;;;;;;;17.05;47.69;101305.00;691264;28;68335;-64
2021/06/02 00:49:52;;;;;;;1.60;1.40;;;;;;;17.07;47.65;101302.94;692901;28;44375;-64
2021/06/02 00:50:13;;;;;;;1.50;1.40;;;;;;;17.07;47.79;101306.50;693486;28;22435;-64
2021/06/02 00:50:34;;;;;;;1.50;1.40;;;;;;;17.08;47.55;101310.03;694633;28;21711;-64
2021/06/02 00:50:55;;;;;;;1.52;1.40;;;;;;;17.08;47.91;101310.03;696776;28;21553;-64
2021/06/02 00:51:19;;;;;;;1.55;1.40;;;;;;;17.07;47.96;101311.94;695973;28;46135;-64
2021/06/02 00:51:40;;;;;;;1.48;1.38;;;;;;;17.05;47.74;101302.28;692199;28;67349;-64
2021/06/02 00:52:03;;;;;;;2.97;1.50;;;;;;;17.07;48.20;101305.66;693695;28;22276;-64
2021/06/02 00:52:26;;;;;;;3.17;1.55;;;;;;;17.05;48.01;101305.88;689308;28;62906;-64
2021/06/02 00:52:47;;;;;;;1.38;1.33;;;;;;;17.05;48.11;101310.47;689535;28;69462;-64
2021/06/02 00:53:09;;;;;;;1.77;1.30;;;;;;;17.05;48.05;101310.47;691317;28;22421;-64
2021/06/02 00:53:30;;;;;;;2.00;1.40;;;;;;;17.05;48.24;101307.72;691005;28;40521;-64
2021/06/02 00:53:54;;;;;;;1.45;1.35;;;;;;;17.05;48.30;101313.19;693530;28;14836;-64
2021/06/02 00:54:15;;;;;;;1.60;1.50;;;;;;;17.05;48.46;101303.13;689535;28;91902;-64
2021/06/02 00:54:37;;;;;;;1.40;1.30;;;;;;;17.05;48.38;101302.28;694349;28;907;-64
2021/06/02 00:54:58;;;;;;;2.15;1.30;;;;;;;17.04;48.41;101306.91;693147;28;41595;-65
2021/06/02 00:55:19;;;;;;;2.70;1.50;;;;;;;17.03;48.76;101302.47;692715;28;23761;-64
2021/06/02 00:55:42;;;;;;;2.00;1.40;;;;;;;17.05;48.48;101308.59;693546;28;11869;-64
2021/06/02 00:56:06;;;;;;;1.60;1.30;;;;;;;17.06;48.31;101310.25;692713;28;69533;-64
2021/06/02 00:56:30;;;;;;;2.00;1.38;;;;;;;17.04;48.15;101304.16;694310;28;67643;-64
2021/06/02 00:56:53;;;;;;;1.50;1.40;;;;;;;17.04;48.33;101309.63;693104;28;116041;-64
2021/06/02 00:57:16;;;;;;;2.20;1.33;;;;;;;17.02;48.71;101311.72;695027;28;46255;-64
2021/06/02 00:57:41;;;;;;;1.55;1.25;;;;;;;17.01;48.62;101312.75;694288;28;70322;-64
2021/06/02 00:58:05;;;;;;;1.40;1.30;;;;;;;17.02;48.84;101317.19;693604;28;115899;-64
2021/06/02 00:58:28;;;;;;;1.27;1.27;;;;;;;17.02;48.95;101306.28;691051;28;85141;-64
2021/06/02 00:58:51;;;;;;;1.33;1.23;;;;;;;17.03;48.69;101312.56;692229;28;58423;-64
2021/06/02 00:59:13;;;;;;;1.60;1.30;;;;;;;17.03;48.88;101315.28;693199;28;37425;-64
2021/06/02 00:59:37;;;;;;;1.40;1.30;;;;;;;17.02;48.62;101319.06;692289;28;45371;-64
2021/06/02 01:00:05;;;;;;;1.23;1.23;;;;;;;17.02;48.73;101308.16;684655;28;114071;-64
2021/06/02 01:00:26;;;;;;;2.03;1.40;;;;;;;17.01;48.95;101307.31;684438;28;138081;-64
2021/06/02 01:00:48;;;;;;;2.10;1.58;;;;;;;17.01;48.48;101311.94;688412;28;25397;-64
2021/06/02 01:01:09;;;;;;;1.50;1.40;;;;;;;17.02;48.47;101316.31;688681;28;46402;-64
2021/06/02 01:01:33;;;;;;;1.25;1.25;;;;;;;17.01;48.83;101320.13;691543;28;23509;-64
2021/06/02 01:01:54;;;;;;;2.38;1.40;;;;;;;17.00;48.68;101313.81;693301;28;69333;-64
2021/06/02 01:02:18;;;;;;;2.08;1.40;;;;;;;17.00;48.50;101319.25;695286;28;45372;-64
2021/06/02 01:02:40;;;;;;;1.38;1.27;;;;;;;17.00;48.89;101318.44;695587;28;46871;-64
2021/06/02 01:03:03;;;;;;;1.40;1.30;;;;;;;16.98;49.01;101318.63;694488;28;45427;-64
2021/06/02 01:03:27;;;;;;;1.60;1.30;;;;;;;17.00;48.88;101326.63;694949;28;66481;-64
2021/06/02 01:03:48;;;;;;;1.60;1.40;;;;;;;17.00;48.88;101318.44;693762;28;92346;-64
2021/06/02 01:04:10;;;;;;;1.63;1.33;;;;;;;16.98;48.71;101315.91;695581;28;47154;-64
2021/06/02 01:04:31;;;;;;;1.77;1.50;;;;;;;16.98;48.83;101324.09;692983;28;44693;-64
2021/06/02 01:04:52;;;;;;;1.38;1.27;;;;;;;16.98;48.88;101321.38;693187;28;20623;-64
2021/06/02 01:05:14;;;;;;;1.58;1.48;;;;;;;16.96;48.83;101323.47;694672;28;947;-64
2021/06/02 01:05:35;;;;;;;1.58;1.30;;;;;;;16.96;48.93;101315.28;693000;28;41600;-64
2021/06/02 01:05:57;;;;;;;1.40;1.30;;;;;;;16.97;48.91;101324.28;694265;28;8772;-64
2021/06/02 01:06:19;;;;;;;1.50;1.40;;;;;;;16.97;48.66;101325.13;694085;28;31449;-64
2021/06/02 01:06:40;;;;;;;2.97;1.50;;;;;;;16.96;48.61;101323.47;696381;28;29814;-64
2021/06/02 01:07:02;;;;;;;1.80;1.30;;;;;;;16.92;48.53;101320.28;695826;28;45253;-64
2021/06/02 01:07:24;;;;;;;1.73;1.25;;;;;;;16.92;48.24;101323.00;696101;28;35058;-64
2021/06/02 01:07:46;;;;;;;1.50;1.40;;;;;;;16.92;48.71;101324.91;695562;28;47269;-64
2021/06/02 01:08:07;;;;;;;1.27;1.20;;;;;;;16.91;48.12;101324.06;695730;28;39086;-64
2021/06/02 01:08:29;;;;;;;2.75;1.38;;;;;;;16.90;48.63;101325.13;696920;28;23896;-64
2021/06/02 01:08:52;;;;;;;2.50;1.40;;;;;;;16.89;48.41;101326.16;696868;28;870;-64
2021/06/02 01:09:14;;;;;;;1.40;1.30;;;;;;;16.88;48.54;101318.16;694901;28;62418;-63
2021/06/02 01:09:36;;;;;;;1.30;1.20;;;;;;;16.89;48.71;101328.03;695793;28;35526;-64
2021/06/02 01:09:59;;;;;;;1.30;1.20;;;;;;;16.87;48.55;101327.41;694455;28;39583;-64
2021/06/02 01:10:21;;;;;;;1.50;1.40;;;;;;;16.86;48.42;101326.56;693822;28;19159;-64
2021/06/02 01:10:44;;;;;;;1.50;1.25;;;;;;;16.86;48.48;101321.09;693366;28;44733;-64
2021/06/02 01:11:05;;;;;;;1.90;1.30;;;;;;;16.85;48.30;101324.00;692594;28;69176;-64
2021/06/02 01:11:27;;;;;;;2.00;1.30;;;;;;;16.84;48.25;101322.34;694178;28;22402;-64
2021/06/02 01:11:49;;;;;;;2.10;1.40;;;;;;;16.83;48.53;101326.09;691957;28;45274;-64
2021/06/02 01:12:14;;;;;;;1.60;1.33;;;;;;;16.84;48.83;101327.78;693420;28;46374;-64
2021/06/02 01:12:35;;;;;;;1.38;1.30;;;;;;;16.83;48.42;101324.22;691255;28;114475;-64
2021/06/02 01:12:58;;;;;;;3.03;1.40;;;;;;;16.83;48.69;101324.22;694092;28;22404;-64
2021/06/02 01:13:20;;;;;;;1.85;1.40;;;;;;;16.84;48.21;101323.16;693158;28;45287;-64
2021/06/02 01:13:42;;;;;;;2.70;1.40;;;;;;;16.85;48.20;101324.00;693307;28;46306;-64
2021/06/02 01:14:04;;;;;;;1.52;1.23;;;;;;;16.84;48.02;101323.16;692209;28;69313;-64
2021/06/02 01:14:27;;;;;;;2.35;1.33;;;;;;;16.82;48.46;101314.38;695198;28;1416;-64
2021/06/02 01:14:49;;;;;;;1.88;1.30;;;;;;;16.85;48.55;101321.28;694508;28;9414;-64
2021/06/02 01:15:10;;;;;;;1.27;1.27;;;;;;;16.84;48.21;101316.88;693301;28;35749;-63
2021/06/02 01:15:32;;;;;;;1.10;1.10;;;;;;;16.83;48.13;101318.75;693844;28;46776;-64
2021/06/02 01:15:53;;;;;;;1.30;1.30;;;;;;;16.82;48.37;101316.22;694226;28;19326;-64
2021/06/02 01:16:14;;;;;;;1.50;1.40;;;;;;;16.84;48.67;101323.16;693427;28;33835;-64
2021/06/02 01:16:37;;;;;;;1.40;1.30;;;;;;;16.83;48.47;101320.66;694695;28;8663;-64
2021/06/02 01:16:58;;;;;;;2.15;1.30;;;;;;;16.81;48.32;101318.13;691637;28;43942;-64
2021/06/02 01:17:21;;;;;;;1.20;1.20;;;;;;;16.80;48.32;101319.16;692771;28;46127;-64
2021/06/02 01:17:42;;;;;;;1.20;1.20;;;;;;;16.80;48.54;101321.88;692438;28;41260;-64
2021/06/02 01:18:04;;;;;;;1.10;1.10;;;;;;;16.81;48.32;101320.84;693176;28;23472;-64
2021/06/02 01:18:25;;;;;;;1.38;1.20;;;;;;;16.81;48.15;101320.03;693440;28;46410;-64
2021/06/02 01:18:47;;;;;;;1.60;1.40;;;;;;;16.80;48.36;101312.88;693981;28;22472;-64
2021/06/02 01:19:11;;;;;;;1.60;1.50;;;;;;;16.80;48.58;101316.44;693694;28;22432;-64
2021/06/02 01:19:32;;;;;;;1.40;1.30;;;;;;;16.79;48.77;101320.22;691260;28;91510;-64
2021/06/02 01:19:55;;;;;;;1.20;1.20;;;;;;;16.78;48.46;101313.06;692456;28;46333;-64
2021/06/02 01:20:18;;;;;;;2.92;1.55;;;;;;;16.78;48.65;101304.91;690385;28;45275;-64
2021/06/02 01:20:39;;;;;;;1.60;1.50;;;;;;;16.78;48.43;101309.53;689957;28;54657;-64
2021/06/02 01:21:01;;;;;;;1.40;1.30;;;;;;;16.79;48.53;101320.22;690784;28;45290;-64
2021/06/02 01:21:25;;;;;;;1.73;1.20;;;;;;;16.79;48.65;101319.41;689750;28;46294;-64
2021/06/02 01:21:55;;;;;;;1.42;1.33;;;;;;;16.76;48.43;101316.00;691519;28;26533;-64
2021/06/02 01:22:16;;;;;;;6.20;1.40;;;;;;;16.79;48.19;101322.94;687327;28;118039;-64
2021/06/02 01:22:39;;;;;;;6.88;1.50;;;;;;;16.77;48.42;101319.59;691396;28;22762;-64
2021/06/02 01:23:00;;;;;;;1.40;1.33;;;;;;;16.76;48.16;101318.72;689725;28;60802;-64
2021/06/02 01:23:22;;;;;;;1.50;1.40;;;;;;;16.77;48.33;101322.31;691152;28;23485;-64
2021/06/02 01:23:43;;;;;;;1.50;1.40;;;;;;;16.76;48.15;101310.56;690550;28;46625;-64
2021/06/02 01:24:05;;;;;;;1.38;1.27;;;;;;;16.77;48.30;101319.59;691577;28;17317;-64
2021/06/02 01:24:27;;;;;;;1.35;1.27;;;;;;;16.75;48.53;101314.34;690859;28;39879;-64
2021/06/02 01:24:48;;;;;;;1.40;1.30;;;;;;;16.75;48.16;101322.53;690798;28;36661;-64
2021/06/02 01:25:12;;;;;;;1.35;1.25;;;;;;;16.75;48.62;101313.47;691018;28;22392;-64
2021/06/02 01:25:34;;;;;;;1.33;1.27;;;;;;;16.75;48.62;101322.53;689206;28;92967;-64
2021/06/02 01:25:56;;;;;;;1.40;1.30;;;;;;;16.75;48.73;101319.81;690227;28;47407;-64
2021/06/02 01:26:17;;;;;;;1.38;1.27;;;;;;;16.74;48.30;101317.28;691760;28;7543;-64
2021/06/02 01:26:39;;;;;;;1.35;1.25;;;;;;;16.72;48.60;101317.47;691402;28;22982;-64
2021/06/02 01:27:03;;;;;;;1.63;1.20;;;;;;;16.74;48.57;101320.00;690764;28;35912;-64
2021/06/02 01:27:24;;;;;;;2.50;1.30;;;;;;;16.73;48.46;101321.88;691809;28;15027;-63
2021/06/02 01:27:51;;;;;;;1.92;1.38;;;;;;;16.71;48.50;101323.13;689813;28;61642;-64
2021/06/02 01:28:13;;;;;;;1.52;1.42;;;;;;;16.70;48.50;101324.16;691372;28;13634;-64
2021/06/02 01:28:34;;;;;;;1.33;1.30;;;;;;;16.70;48.77;101325.00;688629;28;2161;-64
2021/06/02 01:28:56;;;;;;;1.50;1.40;;;;;;;16.70;48.67;101322.28;687094;28;46183;-64
2021/06/02 01:29:17;;;;;;;2.50;1.70;;;;;;;16.70;48.42;101330.47;688141;28;22515;-64
2021/06/02 01:29:40;;;;;;;1.50;1.40;;;;;;;16.69;48.67;101326.06;688269;28;23474;-64
2021/06/02 01:30:03;;;;;;;1.33;1.33;;;;;;;16.69;48.36;101323.34;683153;28;67647;-64
2021/06/02 01:30:24;;;;;;;1.55;1.45;;;;;;;16.69;48.80;101331.53;684722;28;81765;-64
2021/06/02 01:30:45;;;;;;;1.42;1.33;;;;;;;16.67;48.72;101327.31;684584;28;45280;-64
2021/06/02 01:31:07;;;;;;;1.30;1.30;;;;;;;16.67;48.89;101330.88;685745;28;19985;-64
2021/06/02 01:31:51;;;;;;;1.90;1.35;;;;;;;16.67;48.92;101324.56;684068;28;23006;-64
2021/06/02 01:32:24;;;;;;;1.63;1.30;;;;;;;16.66;48.82;101329.19;683695;28;135903;-64
2021/06/02 01:32:54;;;;;;;1.67;1.40;;;;;;;16.66;48.96;101336.53;683289;28;138129;-63
2021/06/02 01:33:32;;;;;;;3.13;1.40;;;;;;;16.65;48.76;101326.69;683050;28;135205;-64
2021/06/02 01:34:00;;;;;;;1.50;1.40;;;;;;;16.65;48.72;101321.22;685639;28;138081;-64
2021/06/02 01:34:34;;;;;;;1.30;1.20;;;;;;;16.65;48.92;101326.69;685298;28;137689;-64
2021/06/02 01:35:06;;;;;;;2.13;1.42;;;;;;;16.65;48.58;101324.78;687309;28;137591;-64
2021/06/02 01:35:42;;;;;;;1.45;1.35;;;;;;;16.65;49.01;101324.78;686762;28;138657;-64
2021/06/02 01:36:05;;;;;;;1.20;1.20;;;;;;;16.64;49.07;101324.97;687552;28;138642;-64
2021/06/02 01:36:38;;;;;;;1.40;1.30;;;;;;;16.62;49.13;101325.19;689943;28;70186;-64
2021/06/02 01:37:13;;;;;;;1.85;1.38;;;;;;;16.60;49.16;101329.16;686570;28;159011;-64
2021/06/02 01:37:53;;;;;;;1.55;1.45;;;;;;;16.57;49.11;101327.69;686919;28;154056;-64
2021/06/02 01:38:45;;;;;;;2.40;1.35;;;;;;;16.56;48.90;101331.44;688004;28;120432;-64
2021/06/02 01:39:33;;;;;;;1.50;1.40;;;;;;;16.52;49.14;101336.47;687647;28;138414;-64
2021/06/02 01:40:07;;;;;;;1.95;1.30;;;;;;;16.48;49.89;101335.19;687082;28;135291;-64
2021/06/02 01:40:54;;;;;;;1.38;1.38;;;;;;;16.45;49.94;101332.84;687410;28;137372;-63
2021/06/02 01:41:20;;;;;;;1.60;1.50;;;;;;;16.43;50.05;101337.69;686733;28;160910;-64
2021/06/02 01:41:57;;;;;;;1.63;1.40;;;;;;;16.42;50.04;101343.34;686900;28;138963;-64
2021/06/02 01:42:28;;;;;;;1.60;1.50;;;;;;;16.41;49.84;101342.50;686911;28;138323;-64
2021/06/02 01:43:00;;;;;;;2.60;1.60;;;;;;;16.40;50.13;101347.09;687545;28;138686;-64
2021/06/02 01:43:52;;;;;;;2.10;1.40;;;;;;;16.42;50.05;101344.16;687580;28;136525;-64
2021/06/02 01:44:44;;;;;;;1.35;1.35;;;;;;;16.38;49.85;101335.56;673427;29;138281;-64
2021/06/02 01:45:42;;;;;;;1.73;1.60;;;;;;;16.36;50.13;101339.50;672571;29;138662;-64
2021/06/02 01:46:25;;;;;;;1.25;1.25;;;;;;;16.33;50.02;101342.63;687228;28;135959;-64
2021/06/02 01:47:21;;;;;;;1.60;1.50;;;;;;;16.31;50.67;101340.13;686313;28;138204;-64
2021/06/02 01:48:02;;;;;;;1.60;1.50;;;;;;;16.32;50.92;101343.69;687231;28;133861;-64
2021/06/02 01:48:32;;;;;;;1.70;1.60;;;;;;;16.32;50.76;101338.25;684714;28;133344;-64
2021/06/02 01:48:57;;;;;;;1.52;1.42;;;;;;;16.33;50.60;101351.69;686965;28;60911;-63
2021/06/02 01:49:32;;;;;;;2.63;1.52;;;;;;;16.34;50.34;101338.88;686764;28;38367;-64
2021/06/02 01:50:28;;;;;;;2.30;1.40;;;;;;;16.32;50.40;101338.25;684957;28;128401;-64
2021/06/02 01:51:37;;;;;;;1.90;1.58;;;;;;;16.33;50.48;101345.38;689328;28;156040;-64
2021/06/02 01:52:36;;;;;;;2.05;1.60;;;;;;;16.33;50.35;101339.91;692118;28;137529;-64
2021/06/02 01:53:30;;;;;;;1.73;1.60;;;;;;;16.35;50.37;101343.31;692445;28;137100;-64
2021/06/02 01:54:39;;;;;;;1.67;1.58;;;;;;;16.32;50.74;101338.25;693370;28;116636;-64
2021/06/02 01:55:14;;;;;;;2.00;1.50;;;;;;;16.32;50.40;101341.81;692748;28;135092;-64
2021/06/02 01:56:17;;;;;;;1.70;1.42;;;;;;;16.33;50.77;101350.81;691904;28;132703;-63
2021/06/02 01:57:21;;;;;;;1.80;1.50;;;;;;;16.32;51.11;101349.97;691587;28;161338;-64
2021/06/02 01:57:58;;;;;;;2.05;1.90;;;;;;;16.30;51.05;101343.91;691582;28;160628;-64